CheckWX is a tool to help pilots better visualize weather data.  It is not intended as a substitute for an official pre-flight weather briefing.

16:57:33 UTC

KHOU METAR
William P Hobby Airport
Houston, Texas, USA
Current

1 hour ago

KHOU 141553Z 21010KT 10SM SCT025 32/23 A2997 RMK AO2 SLP151 T03220233
Observed
Jul-14 @ 15:53 UTC
Wind
  • 210° at 10 KTS
Visibility
10 SM
Flight Rules
VFR
Cloud Levels
  • Scattered at 2,500' AGL
Temperature
32°C / 90°F
Dewpoint
23°C / 73°F
Humidity
59%
Altimeter
29.97" Hg
Pressure
1014.92 hPa
Previous

2 hours ago

KHOU 141453Z 20011KT 9SM SCT020 31/24 A2996 RMK AO2 SLP150 T03110244 51015
Observed
Jul-14 @ 14:53 UTC
Wind
  • 200° at 11 KTS
Visibility
9 SM
Flight Rules
VFR
Cloud Levels
  • Scattered at 2,000' AGL
Temperature
31°C / 88°F
Dewpoint
24°C / 75°F
Humidity
66%
Altimeter
29.96" Hg
Pressure
1014.52 hPa
Previous

3 hours ago

KHOU 141353Z 20012G18KT 9SM SCT020 29/25 A2996 RMK AO2 SLP148 T02940250
Observed
Jul-14 @ 13:53 UTC
Wind
  • 200° at 12 KTS
  • Gusting to 18 KTS
Visibility
9 SM
Flight Rules
VFR
Cloud Levels
  • Scattered at 2,000' AGL
Temperature
29°C / 84°F
Dewpoint
25°C / 77°F
Humidity
79%
Altimeter
29.96" Hg
Pressure
1014.52 hPa